Terminal Aerodrome Forecast
Issued by NWS

Home | Current Version | Previous Version | Text Only | Print | Product List | Glossary On
Versions: 1 2 3 4 5 6 7 8 9 10 11 12 13
000
FTUS45 KABQ 281722
TAFAEG
TAF
KAEG 281722Z 2818/2918 08006KT P6SM FEW120
     FM282100 11009KT P6SM SCT120
     FM290100 12011KT P6SM BKN120
     FM290600 06005KT P6SM BKN100=

USA.gov is the U.S. government's official web portal to all federal, state and local government web resources and services.